Time;durP1;ratioP1;P1;durP2;ratioP2;P2;SDS_P1;SDS_P2;PMS_P1;PMS_P2;Temp;Humidity;BMP_temperature;BMP_pressure;BME280_temperature;BME280_humidity;BME280_pressure;Samples;Min_cycle;Max_cycle;Signal;HPM_P1;HPM_P2
2022/03/18 00:02:24;;;;;;;5.47;1.55;;;5.80;99.90;;;;;;4910395;29;20052;-89
2022/03/18 00:04:52;;;;;;;3.88;1.80;;;7.00;99.90;;;;;;4920670;29;20063;-85
2022/03/18 00:07:22;;;;;;;6.00;2.20;;;5.80;99.90;;;;;;4889887;29;20510;-90
2022/03/18 00:09:48;;;;;;;7.82;2.05;;;5.90;99.90;;;;;;4926975;29;20407;-88
2022/03/18 00:12:14;;;;;;;6.43;2.20;;;6.00;99.90;;;;;;4887768;29;20056;-88
2022/03/18 00:14:40;;;;;;;7.93;2.53;;;6.00;99.90;;;;;;4908403;29;20045;-89
2022/03/18 00:17:08;;;;;;;5.80;2.40;;;6.10;99.90;;;;;;4905470;29;20056;-87
2022/03/18 00:19:35;;;;;;;7.35;2.15;;;6.30;99.90;;;;;;4890952;29;20057;-87
2022/03/18 00:22:01;;;;;;;5.97;1.80;;;6.30;99.90;;;;;;4915170;29;20052;-84
2022/03/18 00:24:33;;;;;;;5.32;1.92;;;6.30;99.90;;;;;;4902462;29;20036;-88
2022/03/18 00:27:04;;;;;;;5.45;2.30;;;6.40;99.90;;;;;;4873822;29;20546;-88
2022/03/18 00:29:30;;;;;;;6.03;1.98;;;6.50;99.90;;;;;;4895416;29;20056;-89
2022/03/18 00:31:56;;;;;;;4.47;1.70;;;6.60;99.90;;;;;;4922380;29;20074;-86
2022/03/18 00:34:22;;;;;;;10.10;2.42;;;6.70;99.90;;;;;;4903608;29;20731;-89
2022/03/18 00:36:48;;;;;;;8.70;1.95;;;6.70;99.90;;;;;;4904035;29;20049;-88
2022/03/18 00:39:14;;;;;;;5.82;2.20;;;6.80;99.90;;;;;;4902599;29;20061;-87
2022/03/18 00:41:41;;;;;;;6.13;2.20;;;6.90;99.90;;;;;;4902569;29;20100;-84
2022/03/18 00:44:07;;;;;;;8.18;2.58;;;6.70;99.90;;;;;;4872020;29;20056;-87
2022/03/18 00:46:34;;;;;;;6.70;2.55;;;6.70;99.90;;;;;;4889400;29;20052;-89
2022/03/18 00:54:28;;;;;;;7.50;2.35;;;6.80;99.90;;;;;;4891077;29;20466;-88
2022/03/18 00:56:54;;;;;;;9.27;2.47;;;6.80;99.90;;;;;;4886961;29;20055;-84
2022/03/18 00:59:19;;;;;;;7.97;3.28;;;6.90;99.90;;;;;;4902335;29;20044;-87
2022/03/18 01:01:45;;;;;;;6.93;2.58;;;6.90;99.90;;;;;;4902841;29;20048;-87
2022/03/18 01:04:11;;;;;;;8.63;2.70;;;6.90;99.90;;;;;;4884745;29;20079;-87
2022/03/18 01:06:36;;;;;;;9.00;2.72;;;6.90;99.90;;;;;;4874815;29;20180;-89
2022/03/18 01:09:05;;;;;;;8.40;2.80;;;6.90;99.90;;;;;;4889817;29;20044;-89
2022/03/18 01:11:32;;;;;;;10.52;3.30;;;6.90;99.90;;;;;;4902994;29;20040;-88
2022/03/18 01:13:59;;;;;;;8.77;2.92;;;6.90;99.90;;;;;;4888990;29;20059;-88
2022/03/18 01:16:24;;;;;;;7.13;2.90;;;6.90;99.90;;;;;;4889188;29;20055;-88
2022/03/18 01:18:50;;;;;;;5.93;3.00;;;6.90;99.90;;;;;;4872639;29;20630;-86
2022/03/18 01:21:16;;;;;;;5.88;2.80;;;7.90;99.90;;;;;;4874769;29;20546;-88
2022/03/18 01:23:41;;;;;;;8.30;2.95;;;6.80;99.90;;;;;;4906229;29;20052;-88
2022/03/18 01:26:07;;;;;;;6.07;2.63;;;6.80;99.90;;;;;;4921638;29;20149;-86
2022/03/18 01:28:33;;;;;;;9.05;2.42;;;6.80;99.90;;;;;;4907385;29;20152;-88
2022/03/18 01:30:59;;;;;;;9.27;2.70;;;6.90;99.90;;;;;;4912509;29;20091;-86
2022/03/18 01:33:25;;;;;;;8.52;2.83;;;6.80;99.90;;;;;;4895252;29;20071;-87
2022/03/18 01:35:50;;;;;;;11.57;2.80;;;6.80;99.90;;;;;;4905803;29;20180;-88
2022/03/18 01:38:16;;;;;;;6.13;2.40;;;6.80;99.90;;;;;;4930392;29;20064;-86
2022/03/18 01:40:42;;;;;;;7.63;2.30;;;6.70;99.90;;;;;;4897798;29;20059;-87
2022/03/18 01:43:09;;;;;;;5.03;2.15;;;6.80;99.90;;;;;;4882896;29;20121;-84
2022/03/18 01:45:36;;;;;;;8.32;2.45;;;6.80;99.90;;;;;;4878429;29;20112;-88
2022/03/18 01:48:03;;;;;;;8.93;2.80;;;6.80;99.90;;;;;;4914252;29;20050;-87
2022/03/18 01:50:30;;;;;;;6.38;2.15;;;6.90;99.90;;;;;;4905229;29;20119;-89
2022/03/18 01:52:57;;;;;;;5.53;2.33;;;6.90;99.90;;;;;;4903193;29;20049;-85
2022/03/18 01:55:24;;;;;;;6.53;2.45;;;7.00;99.90;;;;;;4905196;29;20088;-89
2022/03/18 01:57:51;;;;;;;10.75;2.85;;;6.90;99.90;;;;;;4891659;29;20048;-86
2022/03/18 02:00:21;;;;;;;7.63;2.80;;;6.90;99.90;;;;;;4909476;29;20121;-84
2022/03/18 02:02:47;;;;;;;8.57;2.55;;;7.40;99.90;;;;;;4930084;29;20131;-87
2022/03/18 02:05:14;;;;;;;9.93;3.10;;;7.00;99.90;;;;;;4905242;29;20051;-88
2022/03/18 02:07:40;;;;;;;8.43;2.88;;;6.90;99.90;;;;;;4904311;29;20040;-87
2022/03/18 02:10:07;;;;;;;7.53;2.65;;;6.90;99.90;;;;;;4900258;29;20060;-88
2022/03/18 02:12:33;;;;;;;9.27;2.80;;;6.90;99.90;;;;;;4904569;29;20055;-88
2022/03/18 02:14:59;;;;;;;5.88;2.88;;;6.90;99.90;;;;;;4888688;29;20080;-85
2022/03/18 02:17:25;;;;;;;8.90;2.80;;;6.90;99.90;;;;;;4904420;29;20071;-86
2022/03/18 02:19:51;;;;;;;9.73;2.75;;;6.90;99.90;;;;;;4906455;29;20482;-87
2022/03/18 02:22:24;;;;;;;6.57;2.75;;;7.20;99.90;;;;;;4904642;29;20530;-85
2022/03/18 02:24:54;;;;;;;7.90;3.30;;;6.90;99.90;;;;;;4926796;29;20500;-87
2022/03/18 02:27:21;;;;;;;7.63;3.72;;;6.90;99.90;;;;;;4870773;29;20032;-87
2022/03/18 02:29:47;;;;;;;11.55;3.88;;;7.00;99.90;;;;;;4896097;29;20067;-86
2022/03/18 02:32:13;;;;;;;8.38;3.50;;;7.00;99.90;;;;;;4911685;29;20529;-87
2022/03/18 02:34:41;;;;;;;6.93;3.50;;;7.90;99.90;;;;;;4911000;29;20048;-87
2022/03/18 02:37:08;;;;;;;8.57;4.13;;;7.00;99.90;;;;;;4897741;29;20237;-88
2022/03/18 02:39:34;;;;;;;7.65;3.90;;;7.00;99.90;;;;;;4888236;29;20064;-88
2022/03/18 02:42:00;;;;;;;8.10;4.20;;;6.90;99.90;;;;;;4906926;29;20040;-85
2022/03/18 02:44:26;;;;;;;9.32;4.15;;;7.80;99.90;;;;;;4895767;29;20108;-88
2022/03/18 02:46:52;;;;;;;7.30;4.07;;;6.90;99.90;;;;;;4899730;29;20518;-88
2022/03/18 02:49:19;;;;;;;8.07;4.80;;;6.90;99.90;;;;;;4877135;29;20056;-86
2022/03/18 02:51:45;;;;;;;12.68;5.13;;;6.80;99.90;;;;;;4922388;29;20059;-89
2022/03/18 02:54:12;;;;;;;10.32;5.60;;;6.80;99.90;;;;;;4888155;29;20048;-86
2022/03/18 02:56:38;;;;;;;12.13;5.18;;;7.90;99.90;;;;;;4891895;29;20044;-84
2022/03/18 02:59:04;;;;;;;11.55;5.40;;;7.20;99.90;;;;;;4913479;29;20135;-89
2022/03/18 03:01:31;;;;;;;13.20;5.63;;;6.70;99.90;;;;;;4905929;29;20104;-88
2022/03/18 03:03:58;;;;;;;10.95;5.00;;;6.70;99.90;;;;;;4906795;29;20052;-86
2022/03/18 03:09:08;;;;;;;7.15;4.60;;;6.70;99.90;;;;;;4907287;29;20116;-86
2022/03/18 03:11:34;;;;;;;10.68;4.93;;;6.70;99.90;;;;;;4908132;29;20101;-86
2022/03/18 03:14:01;;;;;;;11.00;4.28;;;6.60;99.90;;;;;;4918394;29;20052;-88
2022/03/18 03:16:27;;;;;;;9.55;4.03;;;6.70;99.90;;;;;;4898781;29;20144;-88
2022/03/18 03:18:53;;;;;;;13.10;4.72;;;6.70;99.90;;;;;;4929118;29;20063;-88
2022/03/18 03:21:19;;;;;;;12.52;4.07;;;6.60;99.90;;;;;;4907382;29;20052;-88
2022/03/18 03:23:44;;;;;;;10.38;4.20;;;6.60;99.90;;;;;;4898101;29;20421;-88
2022/03/18 03:26:11;;;;;;;8.57;4.25;;;6.60;99.90;;;;;;4878288;29;20040;-86
2022/03/18 03:28:37;;;;;;;10.60;4.07;;;6.60;99.90;;;;;;4910076;29;20123;-87
2022/03/18 03:31:04;;;;;;;10.63;4.03;;;6.50;99.90;;;;;;4924594;29;20159;-85
2022/03/18 03:33:31;;;;;;;7.80;4.15;;;6.50;99.90;;;;;;4895201;29;20044;-88
2022/03/18 03:35:57;;;;;;;10.10;3.97;;;6.50;99.90;;;;;;4909170;29;20391;-88
2022/03/18 03:38:23;;;;;;;10.18;4.10;;;7.00;99.90;;;;;;4909585;29;20119;-86
2022/03/18 03:40:50;;;;;;;13.18;4.20;;;6.50;99.90;;;;;;4908783;29;20044;-87
2022/03/18 03:43:15;;;;;;;8.73;4.13;;;6.50;99.90;;;;;;4892648;29;20166;-88
2022/03/18 03:45:41;;;;;;;9.50;4.07;;;6.40;99.90;;;;;;4902062;29;20064;-86
2022/03/18 03:48:10;;;;;;;10.43;4.05;;;6.40;99.90;;;;;;4910131;29;20076;-84
2022/03/18 03:50:37;;;;;;;12.77;4.25;;;6.40;99.90;;;;;;4936917;29;20032;-85
2022/03/18 03:53:03;;;;;;;12.60;4.75;;;6.70;99.90;;;;;;4924126;29;20056;-88
2022/03/18 03:55:29;;;;;;;14.73;4.80;;;6.40;99.90;;;;;;4905452;29;20063;-86
2022/03/18 03:57:55;;;;;;;11.27;4.28;;;6.30;99.90;;;;;;4912316;29;20056;-87
2022/03/18 04:00:21;;;;;;;12.55;4.57;;;6.30;99.90;;;;;;4886844;29;20048;-86
2022/03/18 04:02:47;;;;;;;16.75;4.40;;;6.30;99.90;;;;;;4921232;29;20392;-85
2022/03/18 04:05:13;;;;;;;14.15;5.60;;;6.30;99.90;;;;;;4914011;29;20125;-84
2022/03/18 04:07:41;;;;;;;15.65;4.80;;;6.30;99.90;;;;;;4941677;29;20104;-84
2022/03/18 04:10:10;;;;;;;13.77;4.82;;;6.30;99.90;;;;;;4909381;29;20047;-85
2022/03/18 04:12:36;;;;;;;11.10;4.07;;;6.30;99.90;;;;;;4943597;29;20096;-85
2022/03/18 04:15:08;;;;;;;12.93;4.80;;;6.30;99.90;;;;;;4917320;29;20058;-86
2022/03/18 04:17:45;;;;;;;13.35;4.70;;;6.30;99.90;;;;;;4943049;28;20056;-85
2022/03/18 04:20:16;;;;;;;11.23;4.20;;;6.20;99.90;;;;;;4928176;29;20056;-84
2022/03/18 04:22:42;;;;;;;12.07;4.85;;;6.30;99.90;;;;;;4915604;29;20052;-87
2022/03/18 04:25:09;;;;;;;8.70;4.68;;;6.20;99.90;;;;;;4933686;29;20076;-85
2022/03/18 04:27:35;;;;;;;11.73;4.97;;;6.30;99.90;;;;;;4908246;29;20051;-86
2022/03/18 04:30:02;;;;;;;11.65;4.55;;;6.20;99.90;;;;;;4883391;29;20084;-86
2022/03/18 04:32:27;;;;;;;15.05;4.65;;;6.20;99.90;;;;;;4928149;29;20191;-88
2022/03/18 04:34:53;;;;;;;10.95;4.57;;;6.20;99.90;;;;;;4900331;29;20045;-88
2022/03/18 04:37:19;;;;;;;10.35;4.90;;;6.20;99.90;;;;;;4903180;29;20078;-86
2022/03/18 04:39:45;;;;;;;8.07;4.80;;;6.20;99.90;;;;;;4879557;29;20052;-87
2022/03/18 04:42:10;;;;;;;13.07;5.70;;;6.20;99.90;;;;;;4888365;29;20104;-85
2022/03/18 04:44:36;;;;;;;13.52;4.85;;;6.10;99.90;;;;;;4904988;29;20494;-89
2022/03/18 04:47:02;;;;;;;13.02;5.53;;;6.10;99.90;;;;;;4879798;29;20613;-87
2022/03/18 04:49:28;;;;;;;13.07;5.15;;;6.10;99.90;;;;;;4903713;29;20075;-88
2022/03/18 04:51:53;;;;;;;9.43;4.78;;;6.10;99.90;;;;;;4890623;29;20059;-87
2022/03/18 04:54:19;;;;;;;13.32;5.25;;;6.10;99.90;;;;;;4860066;29;20060;-87
2022/03/18 04:59:29;;;;;;;12.38;5.15;;;6.00;99.90;;;;;;4891777;29;20091;-87
2022/03/18 05:01:55;;;;;;;15.18;5.50;;;7.00;99.90;;;;;;4889481;29;20052;-88
2022/03/18 05:04:21;;;;;;;15.13;5.07;;;6.10;99.90;;;;;;4906414;29;20083;-88
2022/03/18 05:06:47;;;;;;;14.63;5.70;;;6.00;99.90;;;;;;4875932;29;20502;-87
2022/03/18 05:09:13;;;;;;;12.95;5.50;;;6.10;99.90;;;;;;4886617;29;20119;-84
2022/03/18 05:11:42;;;;;;;12.68;5.30;;;6.00;99.90;;;;;;4890133;29;20072;-85
2022/03/18 05:14:07;;;;;;;17.50;5.85;;;5.90;99.90;;;;;;4897845;29;20167;-87
2022/03/18 05:16:33;;;;;;;16.98;6.15;;;5.90;99.90;;;;;;4911885;29;20079;-85
2022/03/18 05:18:59;;;;;;;10.25;5.30;;;6.20;99.90;;;;;;4923955;29;20080;-87
2022/03/18 05:21:25;;;;;;;15.05;5.55;;;5.90;99.90;;;;;;4888191;29;20103;-86
2022/03/18 05:23:51;;;;;;;15.52;5.35;;;5.90;99.90;;;;;;4925876;29;20048;-88
2022/03/18 05:26:17;;;;;;;17.88;5.60;;;5.90;99.90;;;;;;4878757;29;21017;-86
2022/03/18 05:28:42;;;;;;;12.18;6.10;;;5.90;99.90;;;;;;4902261;29;20052;-85
2022/03/18 05:31:09;;;;;;;19.90;6.30;;;5.80;99.90;;;;;;4888481;29;20104;-87
2022/03/18 05:33:35;;;;;;;14.40;5.60;;;5.90;99.90;;;;;;4875516;29;20070;-85
2022/03/18 05:36:01;;;;;;;11.23;4.90;;;5.80;99.90;;;;;;4915181;29;20498;-88
2022/03/18 05:38:26;;;;;;;15.73;5.80;;;5.90;99.90;;;;;;4887669;29;20071;-89
2022/03/18 05:40:53;;;;;;;11.55;5.38;;;5.70;99.90;;;;;;4888067;29;20060;-87
2022/03/18 05:43:19;;;;;;;12.40;5.05;;;5.70;99.90;;;;;;4891531;29;20051;-88
2022/03/18 05:45:45;;;;;;;18.30;5.38;;;5.60;99.90;;;;;;4893706;29;20406;-85
2022/03/18 05:48:12;;;;;;;10.10;5.20;;;5.50;99.90;;;;;;4902107;29;20047;-84
2022/03/18 05:50:38;;;;;;;13.15;5.70;;;5.50;99.90;;;;;;4903609;29;20127;-86
2022/03/18 05:53:04;;;;;;;12.65;5.15;;;5.50;99.90;;;;;;4888342;29;20056;-89
2022/03/18 05:58:15;;;;;;;17.58;6.18;;;5.60;99.90;;;;;;4903371;29;20569;-88
2022/03/18 06:00:44;;;;;;;12.10;5.45;;;5.50;99.90;;;;;;4887850;29;20483;-87
2022/03/18 06:03:12;;;;;;;19.63;6.35;;;5.50;99.90;;;;;;4907747;29;20131;-87
2022/03/18 06:05:39;;;;;;;12.93;5.18;;;5.40;99.90;;;;;;4924570;29;20130;-88
2022/03/18 06:13:33;;;;;;;11.40;4.80;;;5.40;99.90;;;;;;4901906;29;20482;-85
2022/03/18 06:15:59;;;;;;;13.25;6.55;;;5.40;99.90;;;;;;4884270;29;20095;-87
2022/03/18 06:18:25;;;;;;;16.20;7.72;;;5.30;99.90;;;;;;4892639;29;20123;-87
2022/03/18 06:20:55;;;;;;;20.02;8.75;;;5.40;99.90;;;;;;4871287;29;20052;-86
2022/03/18 06:23:21;;;;;;;21.80;7.60;;;5.40;99.90;;;;;;4901001;29;20046;-87
2022/03/18 06:25:47;;;;;;;13.68;6.32;;;5.50;99.90;;;;;;4887956;29;20482;-86
2022/03/18 06:28:13;;;;;;;15.70;7.28;;;5.50;99.90;;;;;;4890111;29;20062;-84
2022/03/18 06:30:38;;;;;;;12.98;7.45;;;5.50;99.90;;;;;;4855840;29;20052;-86
2022/03/18 06:33:04;;;;;;;15.07;6.90;;;5.50;99.90;;;;;;4893104;29;20051;-86
2022/03/18 06:35:30;;;;;;;15.43;6.78;;;5.50;99.90;;;;;;4901228;29;20047;-87
2022/03/18 06:37:56;;;;;;;15.68;7.72;;;5.50;99.90;;;;;;4901633;29;20543;-86
2022/03/18 06:40:22;;;;;;;12.23;7.10;;;5.50;99.90;;;;;;4887446;29;20139;-87
2022/03/18 06:42:48;;;;;;;13.05;7.50;;;5.40;99.90;;;;;;4901266;29;20123;-86
2022/03/18 06:45:13;;;;;;;13.32;6.80;;;5.40;99.90;;;;;;4902247;29;20562;-83
2022/03/18 06:47:39;;;;;;;13.52;6.68;;;5.40;99.90;;;;;;4887585;29;20075;-86
2022/03/18 06:50:06;;;;;;;14.88;7.22;;;5.60;99.90;;;;;;4925349;29;20186;-87
2022/03/18 06:52:31;;;;;;;14.15;7.07;;;5.40;99.90;;;;;;4917033;29;20052;-86
2022/03/18 06:54:59;;;;;;;12.90;6.25;;;5.40;99.90;;;;;;4902695;29;20541;-86
2022/03/18 06:57:24;;;;;;;17.42;7.70;;;5.40;99.90;;;;;;4870285;29;20095;-85
2022/03/18 06:59:50;;;;;;;20.73;8.05;;;5.90;99.90;;;;;;4888429;29;20379;-89
2022/03/18 07:02:16;;;;;;;15.13;7.57;;;5.50;99.90;;;;;;4902549;29;20052;-86
2022/03/18 07:04:42;;;;;;;13.00;6.93;;;6.30;99.90;;;;;;4872565;29;20057;-89
2022/03/18 07:07:08;;;;;;;14.40;6.32;;;5.80;99.90;;;;;;4904489;29;20083;-87
2022/03/18 07:09:34;;;;;;;15.52;5.80;;;5.90;99.90;;;;;;4901207;29;20048;-86
2022/03/18 07:12:00;;;;;;;12.82;5.47;;;6.00;99.90;;;;;;4885525;29;20490;-89
2022/03/18 07:14:26;;;;;;;16.50;5.78;;;6.20;99.90;;;;;;4901880;29;20060;-86
2022/03/18 07:19:38;;;;;;;13.13;5.20;;;6.30;99.90;;;;;;4916893;29;20102;-89
2022/03/18 07:22:09;;;;;;;16.70;5.18;;;6.50;99.90;;;;;;4896772;29;20127;-88
2022/03/18 07:24:35;;;;;;;17.08;5.32;;;5.80;99.90;;;;;;4923092;29;20662;-79
2022/03/18 07:27:01;;;;;;;20.55;5.30;;;5.80;99.90;;;;;;4900576;29;20139;-80
2022/03/18 07:29:27;;;;;;;18.13;5.57;;;6.70;99.90;;;;;;4887118;29;20040;-81
2022/03/18 07:31:55;;;;;;;20.60;5.68;;;7.20;99.90;;;;;;4905036;29;20060;-80
2022/03/18 07:34:24;;;;;;;17.58;5.47;;;7.00;99.90;;;;;;4886462;29;20087;-83
2022/03/18 07:36:50;;;;;;;23.35;6.13;;;7.10;99.90;;;;;;4888922;29;20060;-82
2022/03/18 07:39:16;;;;;;;19.45;5.65;;;7.20;99.90;;;;;;4920821;29;20076;-83
2022/03/18 07:41:42;;;;;;;21.42;6.47;;;7.20;99.90;;;;;;4874762;29;20052;-83
2022/03/18 07:44:11;;;;;;;20.98;6.40;;;7.40;99.90;;;;;;4888955;29;20374;-83
2022/03/18 07:46:37;;;;;;;16.33;5.25;;;7.40;99.90;;;;;;4860016;29;20064;-83
2022/03/18 07:49:03;;;;;;;16.55;5.13;;;7.60;99.90;;;;;;4904261;29;20084;-83
2022/03/18 07:51:30;;;;;;;13.38;5.80;;;7.60;99.90;;;;;;4879379;29;20059;-82
2022/03/18 07:53:56;;;;;;;15.60;5.10;;;7.70;99.90;;;;;;4888697;29;20503;-81
2022/03/18 07:56:22;;;;;;;21.40;5.15;;;7.80;99.90;;;;;;4906930;29;20060;-82
2022/03/18 07:58:48;;;;;;;12.27;5.05;;;7.90;99.90;;;;;;4889837;29;20127;-83
2022/03/18 08:01:14;;;;;;;15.75;5.40;;;8.10;99.90;;;;;;4911308;29;20222;-84
2022/03/18 08:03:40;;;;;;;19.25;5.40;;;8.20;99.90;;;;;;4904801;29;20055;-83
2022/03/18 08:06:05;;;;;;;13.95;5.50;;;8.30;99.90;;;;;;4890257;29;20063;-83
2022/03/18 08:08:31;;;;;;;13.65;5.40;;;8.50;99.90;;;;;;4906649;29;20123;-85
2022/03/18 08:10:57;;;;;;;11.50;4.85;;;8.70;99.90;;;;;;4907698;29;20138;-83
2022/03/18 08:13:23;;;;;;;17.55;5.70;;;8.90;99.90;;;;;;4906889;29;20065;-84
2022/03/18 08:15:49;;;;;;;13.75;4.88;;;9.10;99.90;;;;;;4905848;29;20054;-85
2022/03/18 08:18:16;;;;;;;17.02;5.20;;;9.40;99.90;;;;;;4914004;29;20115;-83
2022/03/18 08:20:42;;;;;;;13.70;5.03;;;9.60;99.90;;;;;;4889460;29;20056;-83
2022/03/18 08:23:14;;;;;;;13.57;5.05;;;9.80;99.90;;;;;;4904571;29;20062;-84
2022/03/18 08:25:40;;;;;;;15.55;4.38;;;10.10;99.90;;;;;;4909197;29;20257;-83
2022/03/18 08:28:07;;;;;;;12.75;4.13;;;10.30;99.90;;;;;;4874596;29;20083;-82
2022/03/18 08:30:33;;;;;;;8.30;3.72;;;10.50;99.90;;;;;;4890284;29;20090;-82
2022/03/18 08:33:00;;;;;;;12.93;4.47;;;10.70;99.90;;;;;;4889253;29;20048;-84
2022/03/18 08:35:26;;;;;;;13.98;4.13;;;10.90;99.90;;;;;;4908817;29;20108;-84
2022/03/18 08:37:57;;;;;;;12.13;4.40;;;11.20;99.90;;;;;;4935812;29;20044;-84
2022/03/18 08:40:25;;;;;;;12.77;4.00;;;11.40;99.90;;;;;;4898845;29;20064;-84
2022/03/18 08:42:51;;;;;;;10.23;4.15;;;11.70;99.90;;;;;;4914260;29;20048;-84
2022/03/18 08:45:18;;;;;;;11.18;3.67;;;11.90;99.90;;;;;;4899796;29;20059;-84
2022/03/18 08:47:44;;;;;;;12.23;3.88;;;12.10;99.90;;;;;;4888024;29;20062;-84
2022/03/18 08:50:11;;;;;;;13.73;4.05;;;12.40;99.90;;;;;;4892387;29;20048;-83
2022/03/18 08:52:36;;;;;;;12.00;3.70;;;12.70;99.90;;;;;;4889628;29;20159;-83
2022/03/18 08:55:04;;;;;;;13.25;4.05;;;12.10;99.90;;;;;;4904801;29;20439;-83
2022/03/18 08:57:36;;;;;;;11.93;3.53;;;13.20;99.90;;;;;;4904390;29;20067;-83
2022/03/18 09:00:07;;;;;;;14.25;3.60;;;13.40;99.90;;;;;;4889578;29;20959;-84
2022/03/18 09:02:34;;;;;;;10.13;3.25;;;13.70;99.90;;;;;;4887181;29;20088;-82
2022/03/18 09:05:00;;;;;;;12.35;3.38;;;13.90;99.90;;;;;;4896772;29;20051;-83
2022/03/18 09:07:26;;;;;;;11.25;3.38;;;14.20;99.90;;;;;;4889260;29;20127;-84
2022/03/18 09:09:51;;;;;;;9.88;3.45;;;14.30;99.90;;;;;;4889906;29;20044;-88
2022/03/18 09:12:18;;;;;;;12.02;3.25;;;14.60;99.90;;;;;;4889140;29;20116;-88
2022/03/18 09:14:44;;;;;;;10.23;3.15;;;14.80;99.90;;;;;;4904513;29;20048;-89
2022/03/18 09:17:10;;;;;;;10.88;3.70;;;14.90;99.90;;;;;;4903850;29;20131;-89
2022/03/18 09:19:37;;;;;;;11.35;3.10;;;15.10;99.90;;;;;;4873059;29;20087;-86
2022/03/18 09:22:07;;;;;;;15.07;3.03;;;15.20;99.90;;;;;;4872398;29;20068;-87
2022/03/18 09:24:47;;;;;;;12.10;2.80;;;15.40;99.90;;;;;;4887577;29;20409;-85
2022/03/18 09:27:16;;;;;;;13.48;3.33;;;15.60;99.90;;;;;;4922810;29;20078;-88
2022/03/18 09:29:42;;;;;;;10.93;2.88;;;15.70;99.90;;;;;;4904265;29;20513;-87
2022/03/18 09:32:08;;;;;;;10.23;3.17;;;15.90;99.90;;;;;;4902921;29;20063;-85
2022/03/18 09:34:35;;;;;;;9.77;3.10;;;16.10;99.90;;;;;;4901869;29;20045;-85
2022/03/18 09:37:02;;;;;;;11.52;3.65;;;16.20;99.90;;;;;;4888703;29;20052;-86
2022/03/18 09:39:28;;;;;;;9.82;3.28;;;16.30;99.90;;;;;;4893707;29;20049;-86
2022/03/18 09:41:55;;;;;;;10.65;2.80;;;16.40;99.90;;;;;;4887905;29;20134;-85
2022/03/18 09:44:21;;;;;;;9.32;3.00;;;16.60;99.90;;;;;;4888348;29;20051;-87
2022/03/18 09:46:50;;;;;;;12.48;3.47;;;16.80;99.90;;;;;;4903403;29;20052;-83
2022/03/18 09:49:18;;;;;;;10.75;3.03;;;17.10;99.90;;;;;;4901915;29;20088;-84
2022/03/18 09:51:48;;;;;;;12.68;3.20;;;17.90;99.90;;;;;;4885174;29;20071;-83
2022/03/18 09:54:14;;;;;;;9.90;3.25;;;17.60;99.90;;;;;;4894001;29;20063;-83
2022/03/18 09:56:42;;;;;;;10.07;2.85;;;17.90;99.90;;;;;;4902350;29;20145;-83
2022/03/18 09:59:09;;;;;;;9.02;3.03;;;18.00;99.90;;;;;;4886641;29;20486;-84
2022/03/18 10:01:35;;;;;;;10.63;3.10;;;18.20;99.90;;;;;;4884406;29;20040;-83
2022/03/18 10:04:12;;;;;;;8.23;3.00;;;18.40;99.90;;;;;;4901552;29;20052;-83
2022/03/18 10:06:42;;;;;;;9.27;2.88;;;18.60;99.90;;;;;;4885630;29;20470;-84
2022/03/18 10:09:09;;;;;;;8.13;2.47;;;18.70;99.90;;;;;;4909380;29;20847;-83
2022/03/18 10:11:37;;;;;;;10.63;3.08;;;18.90;99.90;;;;;;4877308;29;20947;-83
2022/03/18 10:14:15;;;;;;;9.85;3.00;;;19.00;99.90;;;;;;4888280;29;20064;-84
2022/03/18 10:16:48;;;;;;;10.50;3.03;;;19.20;99.90;;;;;;4902596;29;20491;-83
2022/03/18 10:19:15;;;;;;;9.25;3.50;;;19.30;99.90;;;;;;4919081;29;20542;-83
2022/03/18 10:22:01;;;;;;;11.25;3.00;;;19.40;99.90;;;;;;4887232;29;20040;-83
2022/03/18 10:24:33;;;;;;;8.52;2.65;;;19.60;99.90;;;;;;4902717;29;20519;-83
2022/03/18 10:27:14;;;;;;;9.63;2.78;;;19.70;99.90;;;;;;4887441;29;20044;-84
2022/03/18 10:29:46;;;;;;;9.95;2.72;;;19.80;99.90;;;;;;4901850;29;20551;-83
2022/03/18 10:32:13;;;;;;;11.45;3.85;;;19.80;99.90;;;;;;4901481;29;20078;-83
2022/03/18 10:37:38;;;;;;;11.48;2.97;;;20.00;99.90;;;;;;4919629;29;20070;-83
2022/03/18 10:40:04;;;;;;;12.77;3.08;;;20.00;99.90;;;;;;4902206;29;20071;-83
2022/03/18 10:42:30;;;;;;;10.48;2.80;;;19.90;99.90;;;;;;4891535;29;20196;-85
2022/03/18 10:44:59;;;;;;;8.75;2.92;;;19.90;99.90;;;;;;4869800;29;20145;-83
2022/03/18 10:47:31;;;;;;;6.47;2.47;;;20.00;99.90;;;;;;4887747;29;20529;-84
2022/03/18 10:50:16;;;;;;;12.25;2.88;;;20.10;99.90;;;;;;4886607;29;20099;-83
2022/03/18 10:52:48;;;;;;;11.43;2.90;;;20.30;99.90;;;;;;4907931;29;20056;-83
2022/03/18 10:55:22;;;;;;;9.90;2.80;;;20.40;99.90;;;;;;4886702;29;20650;-84
2022/03/18 10:57:59;;;;;;;11.18;3.08;;;20.50;99.90;;;;;;4908191;29;20553;-83
2022/03/18 11:00:30;;;;;;;9.98;2.63;;;20.80;99.90;;;;;;4902720;29;20057;-83
2022/03/18 11:03:01;;;;;;;10.32;2.70;;;20.90;99.90;;;;;;4894685;29;20111;-83
2022/03/18 11:05:37;;;;;;;10.05;2.80;;;21.00;99.90;;;;;;4929722;29;20048;-83
2022/03/18 11:08:11;;;;;;;11.43;2.85;;;21.40;99.90;;;;;;4912846;29;20054;-82
2022/03/18 11:13:28;;;;;;;12.73;2.95;;;21.80;99.90;;;;;;4923544;29;20503;-83
2022/03/18 11:15:55;;;;;;;10.80;2.80;;;21.90;99.80;;;;;;4898101;29;20172;-82
2022/03/18 11:18:21;;;;;;;9.32;2.67;;;22.10;99.40;;;;;;4888573;29;20052;-82
2022/03/18 11:20:50;;;;;;;11.07;3.30;;;22.10;99.40;;;;;;4906674;29;20052;-82
2022/03/18 11:23:24;;;;;;;10.18;3.17;;;22.30;99.10;;;;;;4904442;29;20200;-83
2022/03/18 11:25:54;;;;;;;8.93;2.75;;;22.30;98.30;;;;;;4911294;29;20573;-82
2022/03/18 11:28:23;;;;;;;9.43;3.08;;;22.50;98.50;;;;;;4905849;29;20055;-82
2022/03/18 11:31:01;;;;;;;8.30;2.53;;;22.70;97.90;;;;;;4906015;29;20482;-82
2022/03/18 11:33:27;;;;;;;8.00;2.88;;;22.90;95.50;;;;;;4904355;29;20102;-83
2022/03/18 11:36:02;;;;;;;10.40;2.67;;;23.10;96.50;;;;;;4904679;29;20100;-83
2022/03/18 11:38:51;;;;;;;9.07;2.75;;;23.30;95.40;;;;;;4889121;29;20166;-81
2022/03/18 11:41:23;;;;;;;7.38;2.72;;;23.50;93.10;;;;;;4896336;29;20119;-83
2022/03/18 11:43:51;;;;;;;9.40;2.85;;;23.50;93.00;;;;;;4905067;29;20049;-82
2022/03/18 11:46:16;;;;;;;7.43;2.45;;;23.60;92.50;;;;;;4904814;29;20398;-81
2022/03/18 11:48:49;;;;;;;10.52;2.88;;;23.70;92.20;;;;;;4905459;29;20063;-81
2022/03/18 11:51:41;;;;;;;9.82;2.97;;;23.90;92.00;;;;;;4889900;29;20060;-82
2022/03/18 11:54:23;;;;;;;7.90;2.60;;;24.20;87.40;;;;;;4888580;29;20096;-81
2022/03/18 11:56:57;;;;;;;10.18;2.63;;;24.20;90.40;;;;;;4888759;29;20088;-82
2022/03/18 11:59:29;;;;;;;11.15;2.90;;;24.30;85.60;;;;;;4907305;29;20426;-83
2022/03/18 12:02:02;;;;;;;11.48;3.33;;;24.30;86.40;;;;;;4894134;29;20151;-81
2022/03/18 12:04:34;;;;;;;10.60;2.70;;;24.30;85.70;;;;;;4898260;29;20472;-82
2022/03/18 12:07:23;;;;;;;8.90;2.80;;;24.60;83.10;;;;;;4915061;29;20059;-81
2022/03/18 12:10:09;;;;;;;7.32;2.38;;;24.70;78.50;;;;;;4895672;29;20384;-82
2022/03/18 12:12:42;;;;;;;12.07;2.72;;;24.80;78.70;;;;;;4915682;29;20056;-83
2022/03/18 12:15:09;;;;;;;11.00;2.45;;;24.90;79.70;;;;;;4905709;29;20115;-82
2022/03/18 12:17:49;;;;;;;10.63;2.70;;;25.00;79.70;;;;;;4904004;29;20056;-83
2022/03/18 12:20:30;;;;;;;9.52;2.97;;;25.20;75.00;;;;;;4911160;29;20123;-81
2022/03/18 12:22:57;;;;;;;8.70;2.92;;;25.40;76.00;;;;;;4904071;29;20075;-82
2022/03/18 12:25:24;;;;;;;11.65;2.85;;;25.30;73.60;;;;;;4873724;29;20598;-82
2022/03/18 12:27:51;;;;;;;9.40;2.35;;;25.50;72.80;;;;;;4894565;29;20044;-82
2022/03/18 12:30:28;;;;;;;10.20;2.75;;;25.40;71.80;;;;;;4889655;29;20064;-82
2022/03/18 12:32:57;;;;;;;11.05;2.88;;;25.50;69.40;;;;;;4895290;29;20493;-82
2022/03/18 12:35:38;;;;;;;10.10;2.50;;;25.70;69.90;;;;;;4905482;29;20091;-82
2022/03/18 12:38:06;;;;;;;10.02;2.45;;;25.60;66.60;;;;;;4904096;29;20189;-81
2022/03/18 12:40:34;;;;;;;8.05;2.42;;;25.80;68.00;;;;;;4911992;29;20448;-82
2022/03/18 12:43:04;;;;;;;11.50;2.92;;;25.80;67.00;;;;;;4894421;29;20076;-81
2022/03/18 12:45:32;;;;;;;7.80;2.60;;;26.00;66.80;;;;;;4895736;29;20055;-82
2022/03/18 12:47:59;;;;;;;12.52;2.47;;;26.10;66.20;;;;;;4886118;29;20099;-83
2022/03/18 12:50:41;;;;;;;10.15;2.60;;;26.30;65.50;;;;;;4887421;29;20627;-82
2022/03/18 12:53:15;;;;;;;8.63;2.78;;;26.50;64.40;;;;;;4903010;29;20191;-82
2022/03/18 12:55:43;;;;;;;8.75;2.78;;;26.60;64.00;;;;;;4909102;29;20052;-82
2022/03/18 12:58:10;;;;;;;9.25;2.72;;;26.60;63.70;;;;;;4889054;29;20052;-82
2022/03/18 13:00:41;;;;;;;10.38;2.65;;;26.60;63.00;;;;;;4887003;29;20079;-82
2022/03/18 13:03:14;;;;;;;9.02;2.25;;;26.40;62.50;;;;;;4889145;29;20124;-82
2022/03/18 13:05:40;;;;;;;8.05;2.45;;;26.40;62.70;;;;;;4908420;29;20047;-83
2022/03/18 13:08:07;;;;;;;10.43;2.78;;;26.30;62.50;;;;;;4873040;29;20048;-82
2022/03/18 13:10:34;;;;;;;6.35;2.33;;;26.10;62.20;;;;;;4885861;29;20062;-83
2022/03/18 13:13:27;;;;;;;9.63;2.65;;;26.20;62.10;;;;;;4923350;29;20055;-83
2022/03/18 13:16:01;;;;;;;6.15;2.20;;;26.10;60.60;;;;;;4902646;29;20072;-82
2022/03/18 13:18:34;;;;;;;8.38;2.20;;;26.00;61.70;;;;;;4910111;29;20040;-82
2022/03/18 13:21:09;;;;;;;8.32;2.72;;;26.00;61.30;;;;;;4902874;29;20115;-83